TAF and METAR

No METAR available for Benin Airport

TAF for Benin Airport

TAF DNBE 191700Z 1918/2024 VRB02KT 9999 SCT009 PROB30 TEMPO 1920/1924 TS BKN009 FEW019CB TEMPO 2004/2007 2500 BR BECMG 2008/2010 22010KT BKN013 FEW020CB
Report created 19. okt 19:00

between 19. okt 20:00 - 20. okt 02:00

wind 2 knots from various directions visibility > 10km scattered clouds (~50% cover) at 900 feet

probably (~30%) temporarily between 19. okt 22:00 - 19. okt 02:00

thunderstorm broken clouds (~75% cover) at 900 feet some clouds (~25% cover) at 1900 feet of type cumulonimbus

temporarily between 20. okt 06:00 - 20. okt 09:00

visibility 2500 meters mist

becoming between 20. okt 10:00 - 20. okt 12:00

wind 10 knots from SW (220°) broken clouds (~75% cover) at 1300 feet some clouds (~25% cover) at 2000 feet of type cumulonimbus